sensor_id;sensor_type;location;lat;lon;timestamp;temperature;humidity
79356;SHT31;68825;51.978;5.654;2023-08-01T00:00:24;19.2;77.6
79356;SHT31;68825;51.978;5.654;2023-08-01T00:02:52;19.2;77.7
79356;SHT31;68825;51.978;5.654;2023-08-01T00:05:23;19.2;77.8
79356;SHT31;68825;51.978;5.654;2023-08-01T00:07:52;19.2;77.7
79356;SHT31;68825;51.978;5.654;2023-08-01T00:10:22;19.2;77.4
79356;SHT31;68825;51.978;5.654;2023-08-01T00:12:51;19.1;76.6
79356;SHT31;68825;51.978;5.654;2023-08-01T00:15:19;19.1;77.3
79356;SHT31;68825;51.978;5.654;2023-08-01T00:17:48;19.1;77.5
79356;SHT31;68825;51.978;5.654;2023-08-01T00:20:17;19.1;77.2
79356;SHT31;68825;51.978;5.654;2023-08-01T00:22:45;19.1;77.4
79356;SHT31;68825;51.978;5.654;2023-08-01T00:25:14;19.1;77.5
79356;SHT31;68825;51.978;5.654;2023-08-01T00:27:43;19.1;77.6
79356;SHT31;68825;51.978;5.654;2023-08-01T00:30:12;19.1;77.7
79356;SHT31;68825;51.978;5.654;2023-08-01T00:32:42;19.1;78.0
79356;SHT31;68825;51.978;5.654;2023-08-01T00:35:11;19.1;77.8
79356;SHT31;68825;51.978;5.654;2023-08-01T00:37:42;19.1;77.6
79356;SHT31;68825;51.978;5.654;2023-08-01T00:40:11;19.0;77.8
79356;SHT31;68825;51.978;5.654;2023-08-01T00:42:40;19.0;78.2
79356;SHT31;68825;51.978;5.654;2023-08-01T00:45:09;19.0;78.1
79356;SHT31;68825;51.978;5.654;2023-08-01T00:47:38;19.0;78.1
79356;SHT31;68825;51.978;5.654;2023-08-01T00:50:08;19.0;78.0
79356;SHT31;68825;51.978;5.654;2023-08-01T00:52:36;19.0;78.3
79356;SHT31;68825;51.978;5.654;2023-08-01T00:55:06;19.0;78.1
79356;SHT31;68825;51.978;5.654;2023-08-01T00:57:35;19.0;78.1
79356;SHT31;68825;51.978;5.654;2023-08-01T01:00:04;19.0;78.4
79356;SHT31;68825;51.978;5.654;2023-08-01T01:02:33;19.0;78.1
79356;SHT31;68825;51.978;5.654;2023-08-01T01:05:03;19.0;78.0
79356;SHT31;68825;51.978;5.654;2023-08-01T01:07:33;19.0;78.2
79356;SHT31;68825;51.978;5.654;2023-08-01T01:10:01;19.0;78.0
79356;SHT31;68825;51.978;5.654;2023-08-01T01:12:30;19.0;78.1
79356;SHT31;68825;51.978;5.654;2023-08-01T01:14:59;19.0;77.6
79356;SHT31;68825;51.978;5.654;2023-08-01T01:17:27;19.0;77.7
79356;SHT31;68825;51.978;5.654;2023-08-01T01:19:58;19.0;77.6
79356;SHT31;68825;51.978;5.654;2023-08-01T01:22:28;19.0;77.5
79356;SHT31;68825;51.978;5.654;2023-08-01T01:24:58;19.0;77.8
79356;SHT31;68825;51.978;5.654;2023-08-01T01:27:29;18.9;77.7
79356;SHT31;68825;51.978;5.654;2023-08-01T01:29:59;18.9;77.7
79356;SHT31;68825;51.978;5.654;2023-08-01T01:32:30;18.9;77.9
79356;SHT31;68825;51.978;5.654;2023-08-01T01:35:01;18.9;77.8
79356;SHT31;68825;51.978;5.654;2023-08-01T01:37:29;18.9;77.8
79356;SHT31;68825;51.978;5.654;2023-08-01T01:39:58;18.9;77.7
79356;SHT31;68825;51.978;5.654;2023-08-01T01:42:27;18.9;77.5
79356;SHT31;68825;51.978;5.654;2023-08-01T01:44:55;18.9;77.4
79356;SHT31;68825;51.978;5.654;2023-08-01T01:47:24;18.8;76.9
79356;SHT31;68825;51.978;5.654;2023-08-01T01:49:54;18.8;77.0
79356;SHT31;68825;51.978;5.654;2023-08-01T01:52:24;18.7;77.1
79356;SHT31;68825;51.978;5.654;2023-08-01T01:54:52;18.7;77.2
79356;SHT31;68825;51.978;5.654;2023-08-01T01:57:21;18.7;77.0
79356;SHT31;68825;51.978;5.654;2023-08-01T01:59:49;18.6;77.5
79356;SHT31;68825;51.978;5.654;2023-08-01T02:02:18;18.6;77.4
79356;SHT31;68825;51.978;5.654;2023-08-01T02:04:47;18.5;77.6
79356;SHT31;68825;51.978;5.654;2023-08-01T02:07:16;18.5;77.4
79356;SHT31;68825;51.978;5.654;2023-08-01T02:09:45;18.5;77.7
79356;SHT31;68825;51.978;5.654;2023-08-01T02:12:13;18.5;77.6
79356;SHT31;68825;51.978;5.654;2023-08-01T02:14:42;18.4;77.9
79356;SHT31;68825;51.978;5.654;2023-08-01T02:17:11;18.4;77.9
79356;SHT31;68825;51.978;5.654;2023-08-01T02:19:39;18.4;78.0
79356;SHT31;68825;51.978;5.654;2023-08-01T02:22:08;18.4;77.9
79356;SHT31;68825;51.978;5.654;2023-08-01T02:24:38;18.3;77.9
79356;SHT31;68825;51.978;5.654;2023-08-01T02:27:07;18.3;78.2
79356;SHT31;68825;51.978;5.654;2023-08-01T02:29:36;18.3;78.3
79356;SHT31;68825;51.978;5.654;2023-08-01T02:32:06;18.3;78.4
79356;SHT31;68825;51.978;5.654;2023-08-01T02:34:35;18.3;78.3
79356;SHT31;68825;51.978;5.654;2023-08-01T02:37:03;18.3;78.2
79356;SHT31;68825;51.978;5.654;2023-08-01T02:39:32;18.2;78.3
79356;SHT31;68825;51.978;5.654;2023-08-01T02:42:01;18.2;78.5
79356;SHT31;68825;51.978;5.654;2023-08-01T02:44:31;18.2;78.4
79356;SHT31;68825;51.978;5.654;2023-08-01T02:47:02;18.2;78.4
79356;SHT31;68825;51.978;5.654;2023-08-01T02:49:32;18.2;78.6
79356;SHT31;68825;51.978;5.654;2023-08-01T02:52:01;18.2;78.7
79356;SHT31;68825;51.978;5.654;2023-08-01T02:54:29;18.2;78.7
79356;SHT31;68825;51.978;5.654;2023-08-01T02:56:58;18.2;78.8
79356;SHT31;68825;51.978;5.654;2023-08-01T02:59:27;18.2;79.0
79356;SHT31;68825;51.978;5.654;2023-08-01T03:01:59;18.2;79.2
79356;SHT31;68825;51.978;5.654;2023-08-01T03:04:28;18.2;79.4
79356;SHT31;68825;51.978;5.654;2023-08-01T03:06:56;18.2;79.3
79356;SHT31;68825;51.978;5.654;2023-08-01T03:09:25;18.2;79.2
79356;SHT31;68825;51.978;5.654;2023-08-01T03:11:53;18.2;79.4
79356;SHT31;68825;51.978;5.654;2023-08-01T03:14:22;18.3;79.1
79356;SHT31;68825;51.978;5.654;2023-08-01T03:16:51;18.3;79.1
79356;SHT31;68825;51.978;5.654;2023-08-01T03:19:19;18.3;79.3
79356;SHT31;68825;51.978;5.654;2023-08-01T03:21:48;18.3;79.2
79356;SHT31;68825;51.978;5.654;2023-08-01T03:24:18;18.3;79.2
79356;SHT31;68825;51.978;5.654;2023-08-01T03:26:47;18.3;79.5
79356;SHT31;68825;51.978;5.654;2023-08-01T03:29:15;18.3;79.0
79356;SHT31;68825;51.978;5.654;2023-08-01T03:31:44;18.3;79.2
79356;SHT31;68825;51.978;5.654;2023-08-01T03:34:12;18.4;78.9
79356;SHT31;68825;51.978;5.654;2023-08-01T03:36:41;18.4;78.9
79356;SHT31;68825;51.978;5.654;2023-08-01T03:39:09;18.4;78.7
79356;SHT31;68825;51.978;5.654;2023-08-01T03:41:40;18.4;78.5
79356;SHT31;68825;51.978;5.654;2023-08-01T03:44:10;18.4;78.8
79356;SHT31;68825;51.978;5.654;2023-08-01T03:46:39;18.4;78.6
79356;SHT31;68825;51.978;5.654;2023-08-01T03:49:07;18.4;78.8
79356;SHT31;68825;51.978;5.654;2023-08-01T03:51:36;18.4;78.8
79356;SHT31;68825;51.978;5.654;2023-08-01T03:54:05;18.4;78.8
79356;SHT31;68825;51.978;5.654;2023-08-01T03:56:34;18.4;78.7
79356;SHT31;68825;51.978;5.654;2023-08-01T03:59:02;18.4;78.8
79356;SHT31;68825;51.978;5.654;2023-08-01T04:01:31;18.4;78.6
79356;SHT31;68825;51.978;5.654;2023-08-01T04:04:00;18.4;78.8
79356;SHT31;68825;51.978;5.654;2023-08-01T04:06:28;18.4;78.7
79356;SHT31;68825;51.978;5.654;2023-08-01T04:08:57;18.4;78.6
79356;SHT31;68825;51.978;5.654;2023-08-01T04:11:26;18.4;78.7
79356;SHT31;68825;51.978;5.654;2023-08-01T04:13:56;18.4;78.5
79356;SHT31;68825;51.978;5.654;2023-08-01T04:16:25;18.4;78.7
79356;SHT31;68825;51.978;5.654;2023-08-01T04:18:53;18.4;78.8
79356;SHT31;68825;51.978;5.654;2023-08-01T04:21:23;18.4;78.7
79356;SHT31;68825;51.978;5.654;2023-08-01T04:23:51;18.4;78.7
79356;SHT31;68825;51.978;5.654;2023-08-01T04:26:20;18.4;78.8
79356;SHT31;68825;51.978;5.654;2023-08-01T04:28:49;18.4;78.5
79356;SHT31;68825;51.978;5.654;2023-08-01T04:31:18;18.4;78.3
79356;SHT31;68825;51.978;5.654;2023-08-01T04:33:48;18.4;78.3
79356;SHT31;68825;51.978;5.654;2023-08-01T04:36:17;18.4;78.2
79356;SHT31;68825;51.978;5.654;2023-08-01T04:38:45;18.4;78.7
79356;SHT31;68825;51.978;5.654;2023-08-01T04:41:14;18.4;78.3
79356;SHT31;68825;51.978;5.654;2023-08-01T04:43:42;18.4;78.4
79356;SHT31;68825;51.978;5.654;2023-08-01T04:46:11;18.4;78.4
79356;SHT31;68825;51.978;5.654;2023-08-01T04:48:39;18.4;78.4
79356;SHT31;68825;51.978;5.654;2023-08-01T04:51:08;18.5;78.5
79356;SHT31;68825;51.978;5.654;2023-08-01T04:53:36;18.5;78.5
79356;SHT31;68825;51.978;5.654;2023-08-01T04:56:07;18.5;78.4
79356;SHT31;68825;51.978;5.654;2023-08-01T04:58:36;18.5;78.3
79356;SHT31;68825;51.978;5.654;2023-08-01T05:01:04;18.5;78.2
79356;SHT31;68825;51.978;5.654;2023-08-01T05:03:33;18.5;78.3
79356;SHT31;68825;51.978;5.654;2023-08-01T05:06:03;18.5;78.3
79356;SHT31;68825;51.978;5.654;2023-08-01T05:08:32;18.5;78.5
79356;SHT31;68825;51.978;5.654;2023-08-01T05:11:01;18.4;78.3
79356;SHT31;68825;51.978;5.654;2023-08-01T05:13:29;18.4;78.4
79356;SHT31;68825;51.978;5.654;2023-08-01T05:15:58;18.4;78.5
79356;SHT31;68825;51.978;5.654;2023-08-01T05:18:27;18.4;78.4
79356;SHT31;68825;51.978;5.654;2023-08-01T05:20:56;18.4;78.1
79356;SHT31;68825;51.978;5.654;2023-08-01T05:23:24;18.4;78.7
79356;SHT31;68825;51.978;5.654;2023-08-01T05:25:53;18.4;79.2
79356;SHT31;68825;51.978;5.654;2023-08-01T05:28:21;18.5;79.1
79356;SHT31;68825;51.978;5.654;2023-08-01T05:30:50;18.5;79.4
79356;SHT31;68825;51.978;5.654;2023-08-01T05:33:18;18.5;78.7
79356;SHT31;68825;51.978;5.654;2023-08-01T05:35:48;18.5;78.9
79356;SHT31;68825;51.978;5.654;2023-08-01T05:38:16;18.6;78.5
79356;SHT31;68825;51.978;5.654;2023-08-01T05:40:45;18.6;79.0
79356;SHT31;68825;51.978;5.654;2023-08-01T05:43:13;18.6;79.2
79356;SHT31;68825;51.978;5.654;2023-08-01T05:45:42;18.6;79.3
79356;SHT31;68825;51.978;5.654;2023-08-01T05:48:11;18.7;79.3
79356;SHT31;68825;51.978;5.654;2023-08-01T05:50:40;18.7;79.6
79356;SHT31;68825;51.978;5.654;2023-08-01T05:53:08;18.8;79.2
79356;SHT31;68825;51.978;5.654;2023-08-01T05:55:37;18.8;78.5
79356;SHT31;68825;51.978;5.654;2023-08-01T05:58:06;18.8;78.2
79356;SHT31;68825;51.978;5.654;2023-08-01T06:00:35;18.9;78.7
79356;SHT31;68825;51.978;5.654;2023-08-01T06:03:04;18.9;78.4
79356;SHT31;68825;51.978;5.654;2023-08-01T06:05:35;18.9;78.8
79356;SHT31;68825;51.978;5.654;2023-08-01T06:08:06;18.9;78.5
79356;SHT31;68825;51.978;5.654;2023-08-01T06:10:35;18.9;77.3
79356;SHT31;68825;51.978;5.654;2023-08-01T06:13:04;18.9;78.1
79356;SHT31;68825;51.978;5.654;2023-08-01T06:15:32;18.9;78.6
79356;SHT31;68825;51.978;5.654;2023-08-01T06:18:01;19.0;77.5
79356;SHT31;68825;51.978;5.654;2023-08-01T06:20:30;19.0;77.5
79356;SHT31;68825;51.978;5.654;2023-08-01T06:22:59;19.0;77.6
79356;SHT31;68825;51.978;5.654;2023-08-01T06:25:27;19.0;77.8
79356;SHT31;68825;51.978;5.654;2023-08-01T06:27:56;19.0;77.4
79356;SHT31;68825;51.978;5.654;2023-08-01T06:30:25;19.0;77.0
79356;SHT31;68825;51.978;5.654;2023-08-01T06:32:55;19.0;77.2
79356;SHT31;68825;51.978;5.654;2023-08-01T06:35:24;19.1;76.8
79356;SHT31;68825;51.978;5.654;2023-08-01T06:37:52;19.1;77.3
79356;SHT31;68825;51.978;5.654;2023-08-01T06:40:21;19.1;76.0
79356;SHT31;68825;51.978;5.654;2023-08-01T06:42:50;19.1;76.7
79356;SHT31;68825;51.978;5.654;2023-08-01T06:45:18;19.1;75.8
79356;SHT31;68825;51.978;5.654;2023-08-01T06:47:47;19.1;76.4
79356;SHT31;68825;51.978;5.654;2023-08-01T06:50:15;19.1;76.2
79356;SHT31;68825;51.978;5.654;2023-08-01T06:52:44;19.1;76.5
79356;SHT31;68825;51.978;5.654;2023-08-01T06:55:12;19.1;76.2
79356;SHT31;68825;51.978;5.654;2023-08-01T06:57:41;19.2;76.9
79356;SHT31;68825;51.978;5.654;2023-08-01T07:00:10;19.2;76.5
79356;SHT31;68825;51.978;5.654;2023-08-01T07:02:39;19.2;76.3
79356;SHT31;68825;51.978;5.654;2023-08-01T07:05:10;19.3;76.7
79356;SHT31;68825;51.978;5.654;2023-08-01T07:07:39;19.3;77.5
79356;SHT31;68825;51.978;5.654;2023-08-01T07:10:09;19.4;75.1
79356;SHT31;68825;51.978;5.654;2023-08-01T07:12:37;19.4;75.8
79356;SHT31;68825;51.978;5.654;2023-08-01T07:15:07;19.5;75.2
79356;SHT31;68825;51.978;5.654;2023-08-01T07:17:36;19.5;74.7
79356;SHT31;68825;51.978;5.654;2023-08-01T07:20:05;19.5;75.7
79356;SHT31;68825;51.978;5.654;2023-08-01T07:22:33;19.6;74.0
79356;SHT31;68825;51.978;5.654;2023-08-01T07:25:02;19.6;73.6
79356;SHT31;68825;51.978;5.654;2023-08-01T07:27:31;19.6;73.6
79356;SHT31;68825;51.978;5.654;2023-08-01T07:29:59;19.7;73.4
79356;SHT31;68825;51.978;5.654;2023-08-01T07:32:28;19.7;73.5
79356;SHT31;68825;51.978;5.654;2023-08-01T07:34:57;19.8;73.2
79356;SHT31;68825;51.978;5.654;2023-08-01T07:37:25;19.8;73.5
79356;SHT31;68825;51.978;5.654;2023-08-01T07:39:56;19.8;73.2
79356;SHT31;68825;51.978;5.654;2023-08-01T07:42:27;19.9;72.1
79356;SHT31;68825;51.978;5.654;2023-08-01T07:44:57;19.9;72.4
79356;SHT31;68825;51.978;5.654;2023-08-01T07:47:26;20.0;73.5
79356;SHT31;68825;51.978;5.654;2023-08-01T07:49:55;20.0;70.0
79356;SHT31;68825;51.978;5.654;2023-08-01T07:52:24;20.0;71.2
79356;SHT31;68825;51.978;5.654;2023-08-01T07:54:52;20.1;72.3
79356;SHT31;68825;51.978;5.654;2023-08-01T07:57:23;20.1;70.2
79356;SHT31;68825;51.978;5.654;2023-08-01T07:59:52;20.1;70.9
79356;SHT31;68825;51.978;5.654;2023-08-01T08:02:21;20.1;70.8
79356;SHT31;68825;51.978;5.654;2023-08-01T08:04:51;20.0;71.0
79356;SHT31;68825;51.978;5.654;2023-08-01T08:07:20;20.0;71.8
79356;SHT31;68825;51.978;5.654;2023-08-01T08:09:48;20.0;71.8
79356;SHT31;68825;51.978;5.654;2023-08-01T08:12:17;19.9;71.3
79356;SHT31;68825;51.978;5.654;2023-08-01T08:14:45;19.9;72.8
79356;SHT31;68825;51.978;5.654;2023-08-01T08:17:14;19.8;72.5
79356;SHT31;68825;51.978;5.654;2023-08-01T08:19:43;19.8;73.4
79356;SHT31;68825;51.978;5.654;2023-08-01T08:22:11;19.8;73.0
79356;SHT31;68825;51.978;5.654;2023-08-01T08:24:40;19.8;73.2
79356;SHT31;68825;51.978;5.654;2023-08-01T08:27:10;19.8;72.0
79356;SHT31;68825;51.978;5.654;2023-08-01T08:29:39;19.9;72.1
79356;SHT31;68825;51.978;5.654;2023-08-01T08:32:09;19.9;72.6
79356;SHT31;68825;51.978;5.654;2023-08-01T08:34:37;19.9;70.9
79356;SHT31;68825;51.978;5.654;2023-08-01T08:37:06;20.0;70.0
79356;SHT31;68825;51.978;5.654;2023-08-01T08:39:34;20.1;70.0
79356;SHT31;68825;51.978;5.654;2023-08-01T08:42:05;20.1;71.2
79356;SHT31;68825;51.978;5.654;2023-08-01T08:44:42;20.2;70.8
79356;SHT31;68825;51.978;5.654;2023-08-01T08:47:11;20.2;70.3
79356;SHT31;68825;51.978;5.654;2023-08-01T08:49:41;20.2;69.6
79356;SHT31;68825;51.978;5.654;2023-08-01T08:52:11;20.2;69.3
79356;SHT31;68825;51.978;5.654;2023-08-01T08:54:41;20.3;68.4
79356;SHT31;68825;51.978;5.654;2023-08-01T08:57:11;20.3;69.0
79356;SHT31;68825;51.978;5.654;2023-08-01T08:59:41;20.3;68.4
79356;SHT31;68825;51.978;5.654;2023-08-01T09:02:11;20.3;68.8
79356;SHT31;68825;51.978;5.654;2023-08-01T09:04:40;20.4;67.6
79356;SHT31;68825;51.978;5.654;2023-08-01T09:07:10;20.4;68.5
79356;SHT31;68825;51.978;5.654;2023-08-01T09:09:41;20.5;66.7
79356;SHT31;68825;51.978;5.654;2023-08-01T09:12:10;20.6;66.8
79356;SHT31;68825;51.978;5.654;2023-08-01T09:14:39;20.6;66.5
79356;SHT31;68825;51.978;5.654;2023-08-01T09:17:08;20.7;65.9
79356;SHT31;68825;51.978;5.654;2023-08-01T09:19:40;20.7;64.2
79356;SHT31;68825;51.978;5.654;2023-08-01T09:22:12;20.8;64.9
79356;SHT31;68825;51.978;5.654;2023-08-01T09:24:53;20.8;65.0
79356;SHT31;68825;51.978;5.654;2023-08-01T09:27:22;20.9;63.9
79356;SHT31;68825;51.978;5.654;2023-08-01T09:29:51;20.9;63.1
79356;SHT31;68825;51.978;5.654;2023-08-01T09:32:21;20.9;64.0
79356;SHT31;68825;51.978;5.654;2023-08-01T09:34:59;20.9;63.5
79356;SHT31;68825;51.978;5.654;2023-08-01T09:37:41;21.0;63.6
79356;SHT31;68825;51.978;5.654;2023-08-01T09:40:11;21.0;62.3
79356;SHT31;68825;51.978;5.654;2023-08-01T09:42:41;21.0;62.7
79356;SHT31;68825;51.978;5.654;2023-08-01T09:45:15;21.0;63.3
79356;SHT31;68825;51.978;5.654;2023-08-01T09:47:44;21.0;63.3
79356;SHT31;68825;51.978;5.654;2023-08-01T09:50:23;21.0;64.2
79356;SHT31;68825;51.978;5.654;2023-08-01T09:52:52;21.0;64.9
79356;SHT31;68825;51.978;5.654;2023-08-01T09:55:26;21.0;63.2
79356;SHT31;68825;51.978;5.654;2023-08-01T09:57:57;21.1;62.9
79356;SHT31;68825;51.978;5.654;2023-08-01T10:00:28;21.1;62.3
79356;SHT31;68825;51.978;5.654;2023-08-01T10:02:59;21.2;62.4
79356;SHT31;68825;51.978;5.654;2023-08-01T10:05:30;21.2;63.9
79356;SHT31;68825;51.978;5.654;2023-08-01T10:08:02;21.3;63.7
79356;SHT31;68825;51.978;5.654;2023-08-01T10:10:34;21.3;62.6
79356;SHT31;68825;51.978;5.654;2023-08-01T10:13:03;21.4;62.3
79356;SHT31;68825;51.978;5.654;2023-08-01T10:15:33;21.4;62.8
79356;SHT31;68825;51.978;5.654;2023-08-01T10:18:02;21.4;62.4
79356;SHT31;68825;51.978;5.654;2023-08-01T10:20:32;21.4;63.7
79356;SHT31;68825;51.978;5.654;2023-08-01T10:23:04;21.4;62.0
79356;SHT31;68825;51.978;5.654;2023-08-01T10:25:35;21.5;62.1
79356;SHT31;68825;51.978;5.654;2023-08-01T10:28:06;21.5;60.5
79356;SHT31;68825;51.978;5.654;2023-08-01T10:30:34;21.5;60.6
79356;SHT31;68825;51.978;5.654;2023-08-01T10:33:03;21.5;60.9
79356;SHT31;68825;51.978;5.654;2023-08-01T10:35:36;21.5;60.7
79356;SHT31;68825;51.978;5.654;2023-08-01T10:38:06;21.5;60.5
79356;SHT31;68825;51.978;5.654;2023-08-01T10:40:38;21.5;60.3
79356;SHT31;68825;51.978;5.654;2023-08-01T10:43:22;21.5;59.7
79356;SHT31;68825;51.978;5.654;2023-08-01T10:46:01;21.5;59.3
79356;SHT31;68825;51.978;5.654;2023-08-01T10:48:30;21.5;59.6
79356;SHT31;68825;51.978;5.654;2023-08-01T10:50:59;21.6;59.6
79356;SHT31;68825;51.978;5.654;2023-08-01T10:53:39;21.6;59.0
79356;SHT31;68825;51.978;5.654;2023-08-01T10:56:08;21.6;58.5
79356;SHT31;68825;51.978;5.654;2023-08-01T10:58:41;21.7;60.2
79356;SHT31;68825;51.978;5.654;2023-08-01T11:01:10;21.8;58.7
79356;SHT31;68825;51.978;5.654;2023-08-01T11:03:41;21.9;58.8
79356;SHT31;68825;51.978;5.654;2023-08-01T11:06:10;22.0;59.7
79356;SHT31;68825;51.978;5.654;2023-08-01T11:08:40;22.1;57.3
79356;SHT31;68825;51.978;5.654;2023-08-01T11:11:11;22.1;56.2
79356;SHT31;68825;51.978;5.654;2023-08-01T11:13:41;22.2;56.2
79356;SHT31;68825;51.978;5.654;2023-08-01T11:16:11;22.2;55.8
79356;SHT31;68825;51.978;5.654;2023-08-01T11:18:44;22.2;53.9
79356;SHT31;68825;51.978;5.654;2023-08-01T11:21:29;22.2;54.8
79356;SHT31;68825;51.978;5.654;2023-08-01T11:24:06;22.2;54.6
79356;SHT31;68825;51.978;5.654;2023-08-01T11:26:35;22.1;55.3
79356;SHT31;68825;51.978;5.654;2023-08-01T11:29:04;22.1;56.7
79356;SHT31;68825;51.978;5.654;2023-08-01T11:31:33;22.2;57.0
79356;SHT31;68825;51.978;5.654;2023-08-01T11:34:02;22.2;55.8
79356;SHT31;68825;51.978;5.654;2023-08-01T11:36:32;22.3;56.4
79356;SHT31;68825;51.978;5.654;2023-08-01T11:39:01;22.4;56.8
79356;SHT31;68825;51.978;5.654;2023-08-01T11:41:30;22.4;55.5
79356;SHT31;68825;51.978;5.654;2023-08-01T11:44:03;22.4;56.5
79356;SHT31;68825;51.978;5.654;2023-08-01T11:46:34;22.4;56.1
79356;SHT31;68825;51.978;5.654;2023-08-01T11:49:03;22.4;57.7
79356;SHT31;68825;51.978;5.654;2023-08-01T11:51:42;22.5;57.0
79356;SHT31;68825;51.978;5.654;2023-08-01T11:54:13;22.6;55.8
79356;SHT31;68825;51.978;5.654;2023-08-01T11:56:42;22.7;55.4
79356;SHT31;68825;51.978;5.654;2023-08-01T11:59:12;22.7;56.2
79356;SHT31;68825;51.978;5.654;2023-08-01T12:01:43;22.7;55.5
79356;SHT31;68825;51.978;5.654;2023-08-01T12:04:25;22.7;54.9
79356;SHT31;68825;51.978;5.654;2023-08-01T12:06:54;22.6;57.3
79356;SHT31;68825;51.978;5.654;2023-08-01T12:09:23;22.6;56.9
79356;SHT31;68825;51.978;5.654;2023-08-01T12:11:59;22.5;59.1
79356;SHT31;68825;51.978;5.654;2023-08-01T12:14:28;22.4;59.2
79356;SHT31;68825;51.978;5.654;2023-08-01T12:16:57;22.2;59.8
79356;SHT31;68825;51.978;5.654;2023-08-01T12:19:26;22.1;59.9
79356;SHT31;68825;51.978;5.654;2023-08-01T12:21:54;22.1;59.2
79356;SHT31;68825;51.978;5.654;2023-08-01T12:24:23;22.0;59.5
79356;SHT31;68825;51.978;5.654;2023-08-01T12:26:51;22.0;59.3
79356;SHT31;68825;51.978;5.654;2023-08-01T12:29:20;22.0;59.2
79356;SHT31;68825;51.978;5.654;2023-08-01T12:31:49;21.9;59.7
79356;SHT31;68825;51.978;5.654;2023-08-01T12:34:17;21.9;58.7
79356;SHT31;68825;51.978;5.654;2023-08-01T12:36:46;21.9;57.9
79356;SHT31;68825;51.978;5.654;2023-08-01T12:39:14;21.9;59.4
79356;SHT31;68825;51.978;5.654;2023-08-01T12:41:45;21.9;58.5
79356;SHT31;68825;51.978;5.654;2023-08-01T12:44:15;21.9;58.3
79356;SHT31;68825;51.978;5.654;2023-08-01T12:46:44;21.9;58.3
79356;SHT31;68825;51.978;5.654;2023-08-01T12:49:13;22.0;56.9
79356;SHT31;68825;51.978;5.654;2023-08-01T12:51:41;22.0;57.4
79356;SHT31;68825;51.978;5.654;2023-08-01T12:54:10;22.0;58.7
79356;SHT31;68825;51.978;5.654;2023-08-01T12:56:39;22.0;58.5
79356;SHT31;68825;51.978;5.654;2023-08-01T12:59:07;22.1;58.4
79356;SHT31;68825;51.978;5.654;2023-08-01T13:01:36;22.2;60.5
79356;SHT31;68825;51.978;5.654;2023-08-01T13:04:05;22.3;58.2
79356;SHT31;68825;51.978;5.654;2023-08-01T13:06:34;22.5;57.1
79356;SHT31;68825;51.978;5.654;2023-08-01T13:09:02;22.6;56.4
79356;SHT31;68825;51.978;5.654;2023-08-01T13:11:31;22.7;56.8
79356;SHT31;68825;51.978;5.654;2023-08-01T13:14:00;22.9;55.1
79356;SHT31;68825;51.978;5.654;2023-08-01T13:16:28;23.1;55.0
79356;SHT31;68825;51.978;5.654;2023-08-01T13:18:57;23.2;54.3
79356;SHT31;68825;51.978;5.654;2023-08-01T13:21:27;23.2;53.3
79356;SHT31;68825;51.978;5.654;2023-08-01T13:23:56;23.3;53.3
79356;SHT31;68825;51.978;5.654;2023-08-01T13:26:25;23.3;54.1
79356;SHT31;68825;51.978;5.654;2023-08-01T13:28:53;23.4;54.2
79356;SHT31;68825;51.978;5.654;2023-08-01T13:31:22;23.5;54.2
79356;SHT31;68825;51.978;5.654;2023-08-01T13:33:50;23.6;53.5
79356;SHT31;68825;51.978;5.654;2023-08-01T13:36:19;23.7;53.0
79356;SHT31;68825;51.978;5.654;2023-08-01T13:38:47;23.7;52.0
79356;SHT31;68825;51.978;5.654;2023-08-01T13:41:16;23.7;51.3
79356;SHT31;68825;51.978;5.654;2023-08-01T13:43:45;23.6;51.0
79356;SHT31;68825;51.978;5.654;2023-08-01T13:46:15;23.6;52.5
79356;SHT31;68825;51.978;5.654;2023-08-01T13:48:46;23.5;52.1
79356;SHT31;68825;51.978;5.654;2023-08-01T13:51:15;23.4;51.9
79356;SHT31;68825;51.978;5.654;2023-08-01T13:53:43;23.3;53.2
79356;SHT31;68825;51.978;5.654;2023-08-01T13:56:12;23.2;53.9
79356;SHT31;68825;51.978;5.654;2023-08-01T13:58:42;23.2;53.3
79356;SHT31;68825;51.978;5.654;2023-08-01T14:01:10;23.2;54.1
79356;SHT31;68825;51.978;5.654;2023-08-01T14:03:39;23.2;54.4
79356;SHT31;68825;51.978;5.654;2023-08-01T14:06:09;23.2;53.7
79356;SHT31;68825;51.978;5.654;2023-08-01T14:08:39;23.2;53.1
79356;SHT31;68825;51.978;5.654;2023-08-01T14:11:09;23.2;53.8
79356;SHT31;68825;51.978;5.654;2023-08-01T14:13:38;23.3;55.9
79356;SHT31;68825;51.978;5.654;2023-08-01T14:16:07;23.3;54.7
79356;SHT31;68825;51.978;5.654;2023-08-01T14:18:36;23.4;53.1
79356;SHT31;68825;51.978;5.654;2023-08-01T14:21:04;23.5;54.1
79356;SHT31;68825;51.978;5.654;2023-08-01T14:23:33;23.6;52.0
79356;SHT31;68825;51.978;5.654;2023-08-01T14:26:04;23.7;50.0
79356;SHT31;68825;51.978;5.654;2023-08-01T14:28:32;23.8;50.7
79356;SHT31;68825;51.978;5.654;2023-08-01T14:31:02;23.9;48.9
79356;SHT31;68825;51.978;5.654;2023-08-01T14:33:31;23.9;49.2
79356;SHT31;68825;51.978;5.654;2023-08-01T14:36:02;23.9;49.0
79356;SHT31;68825;51.978;5.654;2023-08-01T14:38:35;23.9;49.5
79356;SHT31;68825;51.978;5.654;2023-08-01T14:41:04;23.8;49.5
79356;SHT31;68825;51.978;5.654;2023-08-01T14:43:32;23.7;50.3
79356;SHT31;68825;51.978;5.654;2023-08-01T14:46:02;23.6;50.3
79356;SHT31;68825;51.978;5.654;2023-08-01T14:48:31;23.5;50.9
79356;SHT31;68825;51.978;5.654;2023-08-01T14:50:59;23.4;51.5
79356;SHT31;68825;51.978;5.654;2023-08-01T14:53:30;23.2;51.1
79356;SHT31;68825;51.978;5.654;2023-08-01T14:55:59;23.1;51.8
79356;SHT31;68825;51.978;5.654;2023-08-01T14:58:30;23.0;53.9
79356;SHT31;68825;51.978;5.654;2023-08-01T15:00:58;22.9;52.1
79356;SHT31;68825;51.978;5.654;2023-08-01T15:03:27;22.9;53.1
79356;SHT31;68825;51.978;5.654;2023-08-01T15:05:55;22.8;52.4
79356;SHT31;68825;51.978;5.654;2023-08-01T15:08:26;22.8;52.7
79356;SHT31;68825;51.978;5.654;2023-08-01T15:10:54;22.8;53.3
79356;SHT31;68825;51.978;5.654;2023-08-01T15:13:23;22.8;53.7
79356;SHT31;68825;51.978;5.654;2023-08-01T15:15:54;22.8;54.2
79356;SHT31;68825;51.978;5.654;2023-08-01T15:18:22;22.9;53.7
79356;SHT31;68825;51.978;5.654;2023-08-01T15:20:52;23.1;54.3
79356;SHT31;68825;51.978;5.654;2023-08-01T15:23:21;23.2;52.3
79356;SHT31;68825;51.978;5.654;2023-08-01T15:25:57;23.4;52.7
79356;SHT31;68825;51.978;5.654;2023-08-01T15:28:26;23.5;51.1
79356;SHT31;68825;51.978;5.654;2023-08-01T15:31:03;23.5;51.3
79356;SHT31;68825;51.978;5.654;2023-08-01T15:33:35;23.5;51.4
79356;SHT31;68825;51.978;5.654;2023-08-01T15:36:05;23.5;51.6
79356;SHT31;68825;51.978;5.654;2023-08-01T15:38:36;23.5;52.2
79356;SHT31;68825;51.978;5.654;2023-08-01T15:41:05;23.4;51.9
79356;SHT31;68825;51.978;5.654;2023-08-01T15:43:36;23.3;52.5
79356;SHT31;68825;51.978;5.654;2023-08-01T15:46:07;23.2;53.6
79356;SHT31;68825;51.978;5.654;2023-08-01T15:48:36;23.0;56.1
79356;SHT31;68825;51.978;5.654;2023-08-01T15:51:06;22.9;56.3
79356;SHT31;68825;51.978;5.654;2023-08-01T15:53:35;22.7;57.9
79356;SHT31;68825;51.978;5.654;2023-08-01T15:56:07;22.5;56.5
79356;SHT31;68825;51.978;5.654;2023-08-01T15:58:37;22.4;56.7
79356;SHT31;68825;51.978;5.654;2023-08-01T16:01:06;22.3;56.1
79356;SHT31;68825;51.978;5.654;2023-08-01T16:03:35;22.2;55.7
79356;SHT31;68825;51.978;5.654;2023-08-01T16:06:04;22.1;56.6
79356;SHT31;68825;51.978;5.654;2023-08-01T16:08:34;22.0;61.1
79356;SHT31;68825;51.978;5.654;2023-08-01T16:11:02;21.9;61.5
79356;SHT31;68825;51.978;5.654;2023-08-01T16:13:31;21.6;62.2
79356;SHT31;68825;51.978;5.654;2023-08-01T16:16:00;21.2;64.1